Time,TemperatureF,DewpointF,PressureIn,WindDirection,WindDirectionDegrees,WindSpeedMPH,WindSpeedGustMPH,Humidity,HourlyPrecipIn,Conditions,Clouds,dailyrainin,SoftwareType,DateUTC
2013-05-19 00:01:00,52.0,-99.9,30.16,WNW,295,26.0,32.0,-999,-99.99,,,-99.99,,2013-05-19 07:01:00,
2013-05-19 00:11:00,52.0,-99.9,30.15,WNW,293,30.0,35.0,-999,-99.99,,,-99.99,,2013-05-19 07:11:00,
2013-05-19 00:22:00,52.0,-99.9,30.15,WNW,290,28.0,35.0,-999,-99.99,,,-99.99,,2013-05-19 07:22:00,
2013-05-19 00:32:00,52.0,-99.9,30.15,WNW,291,28.0,36.0,-999,-99.99,,,-99.99,,2013-05-19 07:32:00,
2013-05-19 00:42:00,52.0,-99.9,30.14,WNW,289,28.0,38.0,-999,-99.99,,,-99.99,,2013-05-19 07:42:00,
2013-05-19 00:52:00,52.0,-99.9,30.15,WNW,291,29.0,38.0,-999,-99.99,,,-99.99,,2013-05-19 07:52:00,
2013-05-19 01:02:00,52.0,-99.9,30.15,WNW,289,27.0,35.0,-999,-99.99,,,-99.99,,2013-05-19 08:02:00,
2013-05-19 01:12:00,52.0,-99.9,30.14,WNW,290,28.0,33.0,-999,-99.99,,,-99.99,,2013-05-19 08:12:00,
2013-05-19 01:22:00,52.0,-99.9,30.14,WNW,290,24.0,34.0,-999,-99.99,,,-99.99,,2013-05-19 08:22:00,
2013-05-19 01:32:00,52.0,-99.9,30.14,WNW,295,25.0,32.0,-999,-99.99,,,-99.99,,2013-05-19 08:32:00,
2013-05-19 01:42:00,52.0,-99.9,30.14,WNW,290,27.0,33.0,-999,-99.99,,,-99.99,,2013-05-19 08:42:00,
2013-05-19 01:52:00,52.0,-99.9,30.14,WNW,291,26.0,32.0,-999,-99.99,,,-99.99,,2013-05-19 08:52:00,
2013-05-19 02:02:00,52.0,-99.9,30.13,WNW,291,23.0,30.0,-999,-99.99,,,-99.99,,2013-05-19 09:02:00,
2013-05-19 02:12:00,52.0,-99.9,30.13,WNW,296,25.0,32.0,-999,-99.99,,,-99.99,,2013-05-19 09:12:00,
2013-05-19 02:21:00,52.0,-99.9,30.13,WNW,295,25.0,31.0,-999,-99.99,,,-99.99,,2013-05-19 09:21:00,
2013-05-19 02:33:00,52.0,-99.9,30.13,WNW,297,23.0,28.0,-999,-99.99,,,-99.99,,2013-05-19 09:33:00,
2013-05-19 02:43:00,52.0,-99.9,30.13,WNW,292,23.0,30.0,-999,-99.99,,,-99.99,,2013-05-19 09:43:00,
2013-05-19 02:53:00,52.0,-99.9,30.13,WNW,294,22.0,27.0,-999,-99.99,,,-99.99,,2013-05-19 09:53:00,
2013-05-19 03:03:00,52.0,-99.9,30.12,WNW,290,26.0,32.0,-999,-99.99,,,-99.99,,2013-05-19 10:03:00,
2013-05-19 03:13:00,52.0,-99.9,30.12,WNW,288,26.0,32.0,-999,-99.99,,,-99.99,,2013-05-19 10:13:00,
2013-05-19 03:23:00,52.0,-99.9,30.12,WNW,290,27.0,35.0,-999,-99.99,,,-99.99,,2013-05-19 10:23:00,
2013-05-19 03:33:00,52.0,-99.9,30.12,WNW,294,23.0,30.0,-999,-99.99,,,-99.99,,2013-05-19 10:33:00,
2013-05-19 03:42:00,52.0,-99.9,30.13,WNW,296,23.0,29.0,-999,-99.99,,,-99.99,,2013-05-19 10:42:00,
2013-05-19 03:53:00,52.0,-99.9,30.13,NW,305,21.0,29.0,-999,-99.99,,,-99.99,,2013-05-19 10:53:00,
2013-05-19 04:02:00,51.0,-99.9,30.13,WNW,296,18.0,22.0,-999,-99.99,,,-99.99,,2013-05-19 11:02:00,
2013-05-19 04:12:00,51.0,-99.9,30.13,WNW,299,23.0,27.0,-999,-99.99,,,-99.99,,2013-05-19 11:12:00,
2013-05-19 04:22:00,51.0,-99.9,30.13,WNW,301,21.0,25.0,-999,-99.99,,,-99.99,,2013-05-19 11:22:00,
2013-05-19 04:32:00,51.0,-99.9,30.13,WNW,301,21.0,24.0,-999,-99.99,,,-99.99,,2013-05-19 11:32:00,
2013-05-19 04:42:00,52.0,-99.9,30.13,WNW,302,23.0,28.0,-999,-99.99,,,-99.99,,2013-05-19 11:42:00,
2013-05-19 04:53:00,52.0,-99.9,30.13,WNW,298,24.0,29.0,-999,-99.99,,,-99.99,,2013-05-19 11:53:00,
2013-05-19 05:01:00,51.0,-99.9,30.13,WNW,300,24.0,27.0,-999,-99.99,,,-99.99,,2013-05-19 12:01:00,
2013-05-19 05:12:00,51.0,-99.9,30.12,WNW,299,23.0,28.0,-999,-99.99,,,-99.99,,2013-05-19 12:12:00,
2013-05-19 05:22:00,51.0,-99.9,30.12,WNW,301,23.0,28.0,-999,-99.99,,,-99.99,,2013-05-19 12:22:00,
2013-05-19 05:32:00,51.0,-99.9,30.13,NW,304,22.0,26.0,-999,-99.99,,,-99.99,,2013-05-19 12:32:00,
2013-05-19 05:42:00,51.0,-99.9,30.13,NW,304,23.0,27.0,-999,-99.99,,,-99.99,,2013-05-19 12:42:00,
2013-05-19 05:52:00,51.0,-99.9,30.13,WNW,300,21.0,27.0,-999,-99.99,,,-99.99,,2013-05-19 12:52:00,
2013-05-19 06:01:00,51.0,-99.9,30.13,WNW,300,25.0,29.0,-999,-99.99,,,-99.99,,2013-05-19 13:01:00,
2013-05-19 06:11:00,51.0,-99.9,30.13,WNW,302,24.0,29.0,-999,-99.99,,,-99.99,,2013-05-19 13:11:00,
2013-05-19 06:21:00,51.0,-99.9,30.13,WNW,300,23.0,29.0,-999,-99.99,,,-99.99,,2013-05-19 13:21:00,
2013-05-19 06:32:00,51.0,-99.9,30.14,NW,304,21.0,26.0,-999,-99.99,,,-99.99,,2013-05-19 13:32:00,
2013-05-19 06:42:00,51.0,-99.9,30.14,NW,306,19.0,23.0,-999,-99.99,,,-99.99,,2013-05-19 13:42:00,
2013-05-19 06:52:00,51.0,-99.9,30.14,WNW,303,21.0,23.0,-999,-99.99,,,-99.99,,2013-05-19 13:52:00,
2013-05-19 07:02:00,51.0,-99.9,30.14,NW,304,21.0,25.0,-999,-99.99,,,-99.99,,2013-05-19 14:02:00,
2013-05-19 07:11:00,51.0,-99.9,30.14,NW,305,19.0,25.0,-999,-99.99,,,-99.99,,2013-05-19 14:11:00,
2013-05-19 07:21:00,51.0,-99.9,30.14,NW,304,20.0,23.0,-999,-99.99,,,-99.99,,2013-05-19 14:21:00,
2013-05-19 07:32:00,51.0,-99.9,30.14,WNW,298,22.0,26.0,-999,-99.99,,,-99.99,,2013-05-19 14:32:00,
2013-05-19 07:42:00,51.0,-99.9,30.14,WNW,296,24.0,27.0,-999,-99.99,,,-99.99,,2013-05-19 14:42:00,
2013-05-19 07:52:00,51.0,-99.9,30.14,WNW,299,23.0,29.0,-999,-99.99,,,-99.99,,2013-05-19 14:52:00,
2013-05-19 08:02:00,51.0,-99.9,30.14,WNW,300,23.0,28.0,-999,-99.99,,,-99.99,,2013-05-19 15:02:00,
2013-05-19 08:12:00,51.0,-99.9,30.14,WNW,297,22.0,26.0,-999,-99.99,,,-99.99,,2013-05-19 15:12:00,
2013-05-19 08:22:00,51.0,-99.9,30.15,WNW,300,22.0,26.0,-999,-99.99,,,-99.99,,2013-05-19 15:22:00,
2013-05-19 08:33:00,52.0,-99.9,30.15,WNW,300,20.0,25.0,-999,-99.99,,,-99.99,,2013-05-19 15:33:00,
2013-05-19 08:43:00,52.0,-99.9,30.15,WNW,298,23.0,29.0,-999,-99.99,,,-99.99,,2013-05-19 15:43:00,
2013-05-19 08:53:00,52.0,-99.9,30.15,WNW,302,21.0,27.0,-999,-99.99,,,-99.99,,2013-05-19 15:53:00,
2013-05-19 09:03:00,52.0,-99.9,30.15,WNW,302,23.0,27.0,-999,-99.99,,,-99.99,,2013-05-19 16:03:00,
2013-05-19 09:13:00,52.0,-99.9,30.15,WNW,302,21.0,27.0,-999,-99.99,,,-99.99,,2013-05-19 16:13:00,
2013-05-19 09:23:00,52.0,-99.9,30.15,WNW,301,23.0,26.0,-999,-99.99,,,-99.99,,2013-05-19 16:23:00,
2013-05-19 09:33:00,52.0,-99.9,30.15,WNW,297,23.0,28.0,-999,-99.99,,,-99.99,,2013-05-19 16:33:00,
2013-05-19 09:42:00,52.0,-99.9,30.15,WNW,301,21.0,27.0,-999,-99.99,,,-99.99,,2013-05-19 16:42:00,
2013-05-19 09:53:00,52.0,-99.9,30.15,WNW,300,20.0,26.0,-999,-99.99,,,-99.99,,2013-05-19 16:53:00,
2013-05-19 10:02:00,52.0,-99.9,30.15,WNW,301,22.0,27.0,-999,-99.99,,,-99.99,,2013-05-19 17:02:00,
2013-05-19 10:12:00,52.0,-99.9,30.15,WNW,301,21.0,28.0,-999,-99.99,,,-99.99,,2013-05-19 17:12:00,
2013-05-19 10:22:00,53.0,-99.9,30.15,WNW,297,21.0,25.0,-999,-99.99,,,-99.99,,2013-05-19 17:22:00,
2013-05-19 10:32:00,53.0,-99.9,30.14,WNW,300,22.0,26.0,-999,-99.99,,,-99.99,,2013-05-19 17:32:00,
2013-05-19 10:43:00,53.0,-99.9,30.15,NW,304,24.0,26.0,-999,-99.99,,,-99.99,,2013-05-19 17:43:00,
2013-05-19 10:52:00,53.0,-99.9,30.14,NW,304,22.0,28.0,-999,-99.99,,,-99.99,,2013-05-19 17:52:00,
2013-05-19 11:02:00,53.0,-99.9,30.15,WNW,302,21.0,26.0,-999,-99.99,,,-99.99,,2013-05-19 18:02:00,
2013-05-19 11:12:00,53.0,-99.9,30.14,WNW,302,25.0,28.0,-999,-99.99,,,-99.99,,2013-05-19 18:12:00,
2013-05-19 11:22:00,53.0,-99.9,30.14,WNW,303,24.0,30.0,-999,-99.99,,,-99.99,,2013-05-19 18:22:00,
2013-05-19 11:32:00,53.0,-99.9,30.14,WNW,302,24.0,30.0,-999,-99.99,,,-99.99,,2013-05-19 18:32:00,
2013-05-19 11:43:00,53.0,-99.9,30.14,WNW,300,24.0,29.0,-999,-99.99,,,-99.99,,2013-05-19 18:43:00,
2013-05-19 11:53:00,53.0,-99.9,30.14,WNW,298,24.0,28.0,-999,-99.99,,,-99.99,,2013-05-19 18:53:00,
2013-05-19 12:01:00,53.0,-99.9,30.15,WNW,301,25.0,28.0,-999,-99.99,,,-99.99,,2013-05-19 19:01:00,
2013-05-19 12:11:00,53.0,-99.9,30.14,WNW,298,21.0,27.0,-999,-99.99,,,-99.99,,2013-05-19 19:11:00,
2013-05-19 12:22:00,53.0,-99.9,30.14,WNW,300,26.0,31.0,-999,-99.99,,,-99.99,,2013-05-19 19:22:00,
2013-05-19 12:32:00,53.0,-99.9,30.14,NW,304,26.0,31.0,-999,-99.99,,,-99.99,,2013-05-19 19:32:00,
2013-05-19 12:42:00,53.0,-99.9,30.14,WNW,303,24.0,29.0,-999,-99.99,,,-99.99,,2013-05-19 19:42:00,
2013-05-19 12:52:00,54.0,-99.9,30.14,WNW,302,22.0,29.0,-999,-99.99,,,-99.99,,2013-05-19 19:52:00,
2013-05-19 13:02:00,54.0,-99.9,30.14,WNW,300,23.0,31.0,-999,-99.99,,,-99.99,,2013-05-19 20:02:00,
2013-05-19 13:11:00,54.0,-99.9,30.13,WNW,303,25.0,28.0,-999,-99.99,,,-99.99,,2013-05-19 20:11:00,
2013-05-19 13:22:00,54.0,-99.9,30.13,NW,304,23.0,29.0,-999,-99.99,,,-99.99,,2013-05-19 20:22:00,
2013-05-19 13:32:00,54.0,-99.9,30.13,WNW,296,26.0,32.0,-999,-99.99,,,-99.99,,2013-05-19 20:32:00,
2013-05-19 13:42:00,54.0,-99.9,30.13,WNW,300,27.0,32.0,-999,-99.99,,,-99.99,,2013-05-19 20:42:00,
2013-05-19 13:52:00,53.0,-99.9,30.12,NW,304,28.0,32.0,-999,-99.99,,,-99.99,,2013-05-19 20:52:00,
2013-05-19 14:02:00,54.0,-99.9,30.12,NW,304,26.0,30.0,-999,-99.99,,,-99.99,,2013-05-19 21:02:00,
2013-05-19 14:11:00,54.0,-99.9,30.12,WNW,302,26.0,30.0,-999,-99.99,,,-99.99,,2013-05-19 21:11:00,
2013-05-19 14:22:00,54.0,-99.9,30.12,WNW,297,27.0,30.0,-999,-99.99,,,-99.99,,2013-05-19 21:22:00,
2013-05-19 14:32:00,54.0,-99.9,30.11,WNW,293,29.0,34.0,-999,-99.99,,,-99.99,,2013-05-19 21:32:00,
2013-05-19 14:43:00,54.0,-99.9,30.11,WNW,297,28.0,34.0,-999,-99.99,,,-99.99,,2013-05-19 21:43:00,
2013-05-19 14:53:00,54.0,-99.9,30.11,WNW,296,26.0,34.0,-999,-99.99,,,-99.99,,2013-05-19 21:53:00,
2013-05-19 15:03:00,54.0,-99.9,30.11,WNW,296,28.0,32.0,-999,-99.99,,,-99.99,,2013-05-19 22:03:00,
2013-05-19 15:12:00,54.0,-99.9,30.10,WNW,296,26.0,34.0,-999,-99.99,,,-99.99,,2013-05-19 22:12:00,
2013-05-19 15:23:00,54.0,-99.9,30.10,WNW,301,29.0,32.0,-999,-99.99,,,-99.99,,2013-05-19 22:23:00,
2013-05-19 15:33:00,54.0,-99.9,30.10,WNW,301,24.0,30.0,-999,-99.99,,,-99.99,,2013-05-19 22:33:00,
2013-05-19 15:43:00,54.0,-99.9,30.09,WNW,293,29.0,33.0,-999,-99.99,,,-99.99,,2013-05-19 22:43:00,
2013-05-19 15:53:00,54.0,-99.9,30.09,WNW,292,27.0,32.0,-999,-99.99,,,-99.99,,2013-05-19 22:53:00,
2013-05-19 16:03:00,54.0,-99.9,30.09,WNW,288,26.0,34.0,-999,-99.99,,,-99.99,,2013-05-19 23:03:00,
2013-05-19 16:12:00,54.0,-99.9,30.08,WNW,289,28.0,34.0,-999,-99.99,,,-99.99,,2013-05-19 23:12:00,
2013-05-19 16:22:00,55.0,-99.9,30.08,WNW,289,28.0,34.0,-999,-99.99,,,-99.99,,2013-05-19 23:22:00,
2013-05-19 16:32:00,54.0,-99.9,30.07,WNW,294,24.0,30.0,-999,-99.99,,,-99.99,,2013-05-19 23:32:00,
2013-05-19 16:42:00,54.0,-99.9,30.07,WNW,296,23.0,31.0,-999,-99.99,,,-99.99,,2013-05-19 23:42:00,
2013-05-19 16:53:00,54.0,-99.9,30.07,WNW,297,22.0,30.0,-999,-99.99,,,-99.99,,2013-05-19 23:53:00,
2013-05-19 17:02:00,54.0,-99.9,30.06,WNW,300,24.0,29.0,-999,-99.99,,,-99.99,,2013-05-20 00:02:00,
2013-05-19 17:12:00,54.0,-99.9,30.06,NW,304,24.0,27.0,-999,-99.99,,,-99.99,,2013-05-20 00:12:00,
2013-05-19 17:22:00,54.0,-99.9,30.06,NW,306,25.0,32.0,-999,-99.99,,,-99.99,,2013-05-20 00:22:00,
2013-05-19 17:32:00,54.0,-99.9,30.06,WNW,303,28.0,32.0,-999,-99.99,,,-99.99,,2013-05-20 00:32:00,
2013-05-19 17:42:00,54.0,-99.9,30.05,WNW,301,27.0,32.0,-999,-99.99,,,-99.99,,2013-05-20 00:42:00,
2013-05-19 17:52:00,54.0,-99.9,30.05,WNW,303,26.0,34.0,-999,-99.99,,,-99.99,,2013-05-20 00:52:00,
2013-05-19 18:01:00,54.0,-99.9,30.05,WNW,299,28.0,33.0,-999,-99.99,,,-99.99,,2013-05-20 01:01:00,
2013-05-19 18:11:00,54.0,-99.9,30.05,WNW,302,25.0,32.0,-999,-99.99,,,-99.99,,2013-05-20 01:11:00,
2013-05-19 18:22:00,54.0,-99.9,30.04,WNW,303,28.0,31.0,-999,-99.99,,,-99.99,,2013-05-20 01:22:00,
2013-05-19 18:32:00,54.0,-99.9,30.04,WNW,300,26.0,31.0,-999,-99.99,,,-99.99,,2013-05-20 01:32:00,
2013-05-19 18:42:00,54.0,-99.9,30.04,WNW,303,28.0,34.0,-999,-99.99,,,-99.99,,2013-05-20 01:42:00,
2013-05-19 18:52:00,53.0,-99.9,30.04,WNW,296,28.0,33.0,-999,-99.99,,,-99.99,,2013-05-20 01:52:00,
2013-05-19 19:02:00,53.0,-99.9,30.03,WNW,298,28.0,34.0,-999,-99.99,,,-99.99,,2013-05-20 02:02:00,
2013-05-19 19:12:00,53.0,-99.9,30.03,WNW,301,29.0,32.0,-999,-99.99,,,-99.99,,2013-05-20 02:12:00,
2013-05-19 19:22:00,53.0,-99.9,30.03,WNW,299,27.0,34.0,-999,-99.99,,,-99.99,,2013-05-20 02:22:00,
2013-05-19 19:32:00,53.0,-99.9,30.02,WNW,299,26.0,32.0,-999,-99.99,,,-99.99,,2013-05-20 02:32:00,
2013-05-19 19:42:00,53.0,-99.9,30.02,WNW,300,25.0,31.0,-999,-99.99,,,-99.99,,2013-05-20 02:42:00,
2013-05-19 19:52:00,53.0,-99.9,30.02,WNW,302,24.0,30.0,-999,-99.99,,,-99.99,,2013-05-20 02:52:00,
2013-05-19 20:02:00,53.0,-99.9,30.02,WNW,302,26.0,30.0,-999,-99.99,,,-99.99,,2013-05-20 03:02:00,
2013-05-19 20:12:00,53.0,-99.9,30.02,WNW,294,26.0,31.0,-999,-99.99,,,-99.99,,2013-05-20 03:12:00,
2013-05-19 20:22:00,53.0,-99.9,30.02,WNW,296,25.0,32.0,-999,-99.99,,,-99.99,,2013-05-20 03:22:00,
2013-05-19 20:33:00,53.0,-99.9,30.02,WNW,297,25.0,31.0,-999,-99.99,,,-99.99,,2013-05-20 03:33:00,
2013-05-19 20:43:00,53.0,-99.9,30.02,WNW,297,24.0,32.0,-999,-99.99,,,-99.99,,2013-05-20 03:43:00,
2013-05-19 20:53:00,53.0,-99.9,30.02,WNW,297,24.0,31.0,-999,-99.99,,,-99.99,,2013-05-20 03:53:00,
2013-05-19 21:03:00,53.0,-99.9,30.02,WNW,297,25.0,30.0,-999,-99.99,,,-99.99,,2013-05-20 04:03:00,
2013-05-19 21:13:00,52.0,-99.9,30.02,NW,304,23.0,29.0,-999,-99.99,,,-99.99,,2013-05-20 04:13:00,
2013-05-19 21:23:00,53.0,-99.9,30.02,WNW,299,24.0,28.0,-999,-99.99,,,-99.99,,2013-05-20 04:23:00,
2013-05-19 21:33:00,53.0,-99.9,30.02,NW,304,23.0,27.0,-999,-99.99,,,-99.99,,2013-05-20 04:33:00,
2013-05-19 21:43:00,53.0,-99.9,30.03,WNW,300,23.0,28.0,-999,-99.99,,,-99.99,,2013-05-20 04:43:00,
2013-05-19 21:53:00,52.0,-99.9,30.03,WNW,302,20.0,27.0,-999,-99.99,,,-99.99,,2013-05-20 04:53:00,
2013-05-19 22:02:00,53.0,-99.9,30.03,WNW,300,22.0,27.0,-999,-99.99,,,-99.99,,2013-05-20 05:02:00,
2013-05-19 22:12:00,53.0,-99.9,30.03,WNW,299,21.0,27.0,-999,-99.99,,,-99.99,,2013-05-20 05:12:00,
2013-05-19 22:22:00,53.0,-99.9,30.03,WNW,301,23.0,28.0,-999,-99.99,,,-99.99,,2013-05-20 05:22:00,
2013-05-19 22:32:00,53.0,-99.9,30.03,WNW,294,26.0,30.0,-999,-99.99,,,-99.99,,2013-05-20 05:32:00,
2013-05-19 22:42:00,53.0,-99.9,30.02,WNW,291,24.0,29.0,-999,-99.99,,,-99.99,,2013-05-20 05:42:00,
2013-05-19 22:52:00,53.0,-99.9,30.03,WNW,296,21.0,28.0,-999,-99.99,,,-99.99,,2013-05-20 05:52:00,
2013-05-19 23:01:00,52.0,-99.9,30.03,WNW,299,19.0,27.0,-999,-99.99,,,-99.99,,2013-05-20 06:01:00,
2013-05-19 23:11:00,52.0,-99.9,30.03,WNW,297,19.0,24.0,-999,-99.99,,,-99.99,,2013-05-20 06:11:00,
2013-05-19 23:21:00,52.0,-99.9,30.03,WNW,294,19.0,26.0,-999,-99.99,,,-99.99,,2013-05-20 06:21:00,
2013-05-19 23:32:00,52.0,-99.9,30.02,WNW,290,20.0,25.0,-999,-99.99,,,-99.99,,2013-05-20 06:32:00,
2013-05-19 23:42:00,52.0,-99.9,30.02,WNW,290,22.0,27.0,-999,-99.99,,,-99.99,,2013-05-20 06:42:00,
2013-05-19 23:52:00,52.0,-99.9,30.02,WNW,290,19.0,26.0,-999,-99.99,,,-99.99,,2013-05-20 06:52:00,